Time;durP1;ratioP1;P1;durP2;ratioP2;P2;SDS_P1;SDS_P2;PMS_P1;PMS_P2;Temp;Humidity;BMP_temperature;BMP_pressure;BME280_temperature;BME280_humidity;BME280_pressure;Samples;Min_cycle;Max_cycle;Signal;HPM_P1;HPM_P2
2022/06/12 00:00:31;;;;;;;;;;;15.70;99.90;;;;;;5053908;28;19928;-87
2022/06/12 00:03:00;;;;;;;;;;;15.70;99.90;;;;;;5054168;28;19931;-86
2022/06/12 00:05:28;;;;;;;;;;;15.60;99.90;;;;;;5053508;28;19983;-87
2022/06/12 00:07:55;;;;;;;;;;;15.60;99.90;;;;;;5054022;28;20020;-88
2022/06/12 00:10:22;;;;;;;;;;;15.60;99.90;;;;;;5053524;28;19972;-88
2022/06/12 00:12:48;;;;;;;;;;;15.50;1.00;;;;;;5053867;28;19931;-88
2022/06/12 00:15:18;;;;;;;;;;;15.50;1.00;;;;;;5053805;28;20007;-87
2022/06/12 00:17:45;;;;;;;;;;;15.50;1.00;;;;;;5035923;28;19972;-88
2022/06/12 00:20:14;;;;;;;;;;;15.50;1.00;;;;;;5033766;28;19972;-87
2022/06/12 00:22:41;;;;;;;;;;;15.50;1.00;;;;;;5033735;28;19984;-88
2022/06/12 00:25:09;;;;;;;;;;;15.50;1.00;;;;;;5033666;28;19931;-88
2022/06/12 00:27:36;;;;;;;;;;;15.50;1.00;;;;;;5034132;28;20288;-87
2022/06/12 00:30:03;;;;;;;;;;;15.40;1.00;;;;;;5033534;28;19968;-88
2022/06/12 00:32:30;;;;;;;;;;;15.40;1.00;;;;;;5033489;28;19929;-88
2022/06/12 00:34:57;;;;;;;;;;;15.30;1.00;;;;;;5033475;28;20343;-87
2022/06/12 00:37:27;;;;;;;;;;;15.20;1.00;;;;;;5033306;28;20447;-88
2022/06/12 00:39:55;;;;;;;;;;;15.20;1.00;;;;;;5033112;28;20459;-87
2022/06/12 00:42:23;;;;;;;;;;;15.10;51.40;;;;;;5033394;28;20009;-87
2022/06/12 00:44:50;;;;;;;;;;;15.10;58.60;;;;;;5033112;28;19925;-87
2022/06/12 00:47:17;;;;;;;;;;;15.00;23.00;;;;;;5033264;28;19968;-87
2022/06/12 00:49:46;;;;;;;;;;;15.00;43.10;;;;;;5032985;28;19972;-86
2022/06/12 00:52:14;;;;;;;;;;;14.90;99.90;;;;;;5033235;28;20011;-86
2022/06/12 00:54:44;;;;;;;;;;;14.90;99.90;;;;;;5038297;28;19982;-87
2022/06/12 00:57:11;;;;;;;;;;;14.90;99.90;;;;;;5052749;28;19983;-88
2022/06/12 00:59:39;;;;;;;;;;;14.90;99.90;;;;;;5053066;28;20418;-87
2022/06/12 01:02:07;;;;;;;;;;;14.90;99.90;;;;;;5053248;28;20024;-87
2022/06/12 01:07:20;;;;;;;;;;;14.80;99.90;;;;;;5052917;28;19967;-88
2022/06/12 01:09:50;;;;;;;;;;;14.80;99.90;;;;;;5052625;28;20421;-87
2022/06/12 01:12:18;;;;;;;;;;;14.70;99.90;;;;;;5051960;28;19929;-88
2022/06/12 01:14:47;;;;;;;;;;;14.70;99.90;;;;;;5052830;28;20371;-87
2022/06/12 01:17:14;;;;;;;;;;;14.70;99.90;;;;;;5052578;28;20015;-87
2022/06/12 01:19:42;;;;;;;;;;;14.70;99.90;;;;;;5052705;28;20021;-87
2022/06/12 01:22:27;;;;;;;;;;;14.60;99.90;;;;;;5053082;28;19967;-87
2022/06/12 01:25:14;;;;;;;;;;;14.60;99.90;;;;;;5043213;28;20387;-87
2022/06/12 01:27:52;;;;;;;;;;;14.50;99.90;;;;;;5024484;28;20457;-87
2022/06/12 01:30:24;;;;;;;;;;;14.50;99.90;;;;;;5032922;28;19925;-88
2022/06/12 01:32:53;;;;;;;;;;;14.50;99.90;;;;;;5041068;28;19990;-87
2022/06/12 01:35:22;;;;;;;;;;;14.40;99.90;;;;;;5052287;28;20393;-88
2022/06/12 01:37:53;;;;;;;;;;;14.40;99.90;;;;;;5052666;28;19968;-87
2022/06/12 01:40:23;;;;;;;;;;;14.40;99.90;;;;;;5052455;28;20375;-86
2022/06/12 01:42:52;;;;;;;;;;;14.40;1.00;;;;;;5052930;28;19971;-87
2022/06/12 01:45:27;;;;;;;;;;;14.40;1.00;;;;;;5052571;28;20008;-88
2022/06/12 01:47:56;;;;;;;;;;;14.50;1.00;;;;;;5052714;28;20334;-87
2022/06/12 01:50:28;;;;;;;;;;;14.40;1.00;;;;;;5052393;28;20011;-88
2022/06/12 01:52:59;;;;;;;;;;;14.40;1.00;;;;;;5052154;28;19968;-88
2022/06/12 01:55:31;;;;;;;;;;;14.40;1.00;;;;;;5052346;28;19925;-87
2022/06/12 01:58:01;;;;;;;;;;;14.40;1.00;;;;;;5052641;28;19931;-87
2022/06/12 02:00:30;;;;;;;;;;;14.40;1.00;;;;;;5052450;28;19975;-86
2022/06/12 02:02:59;;;;;;;;;;;14.40;1.00;;;;;;5043649;28;19925;-87
2022/06/12 02:05:29;;;;;;;;;;;14.30;1.00;;;;;;5044430;28;19971;-87
2022/06/12 02:07:58;;;;;;;;;;;14.30;1.00;;;;;;5052284;28;19931;-87
2022/06/12 02:10:27;;;;;;;;;;;14.30;1.00;;;;;;5052279;28;19931;-88
2022/06/12 02:13:13;;;;;;;;;;;14.30;15.40;;;;;;5052368;28;20020;-87
2022/06/12 02:15:50;;;;;;;;;;;14.30;99.90;;;;;;5052406;28;20398;-87
2022/06/12 02:18:20;;;;;;;;;;;14.30;99.90;;;;;;5052446;28;20276;-86
2022/06/12 02:20:49;;;;;;;;;;;14.30;1.00;;;;;;5052390;28;19932;-88
2022/06/12 02:23:19;;;;;;;;;;;14.40;1.00;;;;;;5053609;28;19947;-87
2022/06/12 02:25:47;;;;;;;;;;;14.50;1.00;;;;;;5055579;28;19979;-87
2022/06/12 02:28:19;;;;;;;;;;;14.50;1.00;;;;;;5055952;28;19971;-87
2022/06/12 02:30:49;;;;;;;;;;;14.50;1.00;;;;;;5055417;28;20027;-87
2022/06/12 02:33:21;;;;;;;;;;;14.60;1.00;;;;;;5040468;28;19925;-89
2022/06/12 02:35:50;;;;;;;;;;;14.60;1.00;;;;;;5035455;28;20299;-87
2022/06/12 02:38:20;;;;;;;;;;;14.60;99.90;;;;;;5035446;28;19925;-88
2022/06/12 02:40:49;;;;;;;;;;;14.50;99.90;;;;;;5040506;28;20017;-86
2022/06/12 02:43:17;;;;;;;;;;;14.50;99.90;;;;;;5035827;28;19964;-86
2022/06/12 02:45:46;;;;;;;;;;;14.50;99.90;;;;;;5035215;28;20020;-85
2022/06/12 02:48:12;;;;;;;;;;;14.50;1.00;;;;;;5035427;28;19967;-86
2022/06/12 02:50:44;;;;;;;;;;;14.40;1.00;;;;;;5035507;28;20020;-86
2022/06/12 02:53:16;;;;;;;;;;;14.50;1.00;;;;;;5035768;28;19964;-86
2022/06/12 02:55:44;;;;;;;;;;;14.50;1.00;;;;;;5035455;28;20042;-85
2022/06/12 02:58:17;;;;;;;;;;;14.50;1.00;;;;;;5035536;28;20379;-87
2022/06/12 03:00:47;;;;;;;;;;;14.50;99.90;;;;;;5035114;28;19932;-86
2022/06/12 03:03:19;;;;;;;;;;;14.50;99.90;;;;;;5049167;28;19925;-86
2022/06/12 03:05:50;;;;;;;;;;;14.50;99.90;;;;;;5015154;28;19984;-86
2022/06/12 03:08:18;;;;;;;;;;;14.50;99.90;;;;;;5015550;28;20336;-86
2022/06/12 03:10:47;;;;;;;;;;;14.50;99.90;;;;;;5015430;28;19925;-86
2022/06/12 03:13:15;;;;;;;;;;;14.50;99.90;;;;;;5015423;28;19969;-87
2022/06/12 03:15:43;;;;;;;;;;;14.60;99.90;;;;;;5015100;28;19926;-87
2022/06/12 03:18:12;;;;;;;;;;;14.60;99.90;;;;;;5015265;28;20056;-86
2022/06/12 03:20:45;;;;;;;;;;;14.60;99.90;;;;;;5015467;28;19969;-86
2022/06/12 03:23:21;;;;;;;;;;;14.60;99.90;;;;;;5015492;28;19984;-86
2022/06/12 03:25:51;;;;;;;;;;;14.70;99.90;;;;;;5015144;28;20304;-86
2022/06/12 03:28:23;;;;;;;;;;;14.70;99.90;;;;;;5015171;28;19925;-86
2022/06/12 03:30:52;;;;;;;;;;;14.80;99.90;;;;;;5015135;28;19975;-87
2022/06/12 03:33:20;;;;;;;;;;;14.90;99.90;;;;;;5013936;28;19968;-86
2022/06/12 03:35:55;;;;;;;;;;;14.90;99.90;;;;;;5014186;28;20020;-86
2022/06/12 03:38:25;;;;;;;;;;;15.00;99.90;;;;;;5015077;28;19980;-87
2022/06/12 03:40:55;;;;;;;;;;;15.00;99.90;;;;;;5014300;28;20354;-86
2022/06/12 03:43:27;;;;;;;;;;;15.00;1.00;;;;;;5017313;28;19980;-88
2022/06/12 03:46:02;;;;;;;;;;;15.10;1.00;;;;;;5032393;28;19909;-88
2022/06/12 03:48:38;;;;;;;;;;;15.60;99.90;;;;;;5027008;28;19971;-91
2022/06/12 03:51:12;;;;;;;;;;;16.50;99.90;;;;;;5029301;28;19925;-91
2022/06/12 03:53:49;;;;;;;;;;;17.60;1.00;;;;;;5021892;28;20336;-92
2022/06/12 03:59:11;;;;;;;6.93;5.90;;;19.60;99.90;;;;;;5025760;28;20026;-90
2022/06/12 04:01:39;;;;;;;9.20;6.13;;;20.70;2.30;;;;;;5005765;28;20204;-89
2022/06/12 04:04:20;;;;;;;;;;;21.70;99.90;;;;;;5014727;28;20064;-92
2022/06/12 04:06:48;;;;;;;7.93;5.97;;;22.80;1.00;;;;;;5051415;28;20639;-88
2022/06/12 04:09:31;;;;;;;;;;;23.80;1.00;;;;;;5037526;28;20128;-92
2022/06/12 04:12:02;;;;;;;7.25;5.15;;;24.80;99.90;;;;;;5045428;28;20184;-88
2022/06/12 04:14:46;;;;;;;7.00;5.28;;;25.80;1.00;;;;;;5062178;28;20215;-90
2022/06/12 04:17:18;;;;;;;6.28;5.10;;;26.60;1.00;;;;;;5059988;28;20089;-87
2022/06/12 04:20:00;;;;;;;8.63;5.72;;;27.40;1.00;;;;;;5059962;28;20678;-88
2022/06/12 04:22:39;;;;;;;9.02;5.05;;;28.10;99.90;;;;;;5061366;28;20156;-90
2022/06/12 04:25:21;;;;;;;8.07;4.88;;;28.70;99.90;;;;;;5060777;28;20184;-89
2022/06/12 04:27:49;;;;;;;6.95;4.95;;;29.20;99.90;;;;;;5060822;28;20219;-89
2022/06/12 04:30:28;;;;;;;6.22;4.72;;;29.80;99.90;;;;;;5059315;28;20231;-91
2022/06/12 04:33:26;;;;;;;5.50;5.00;;;30.10;78.40;;;;;;5060544;28;20177;-91
2022/06/12 04:36:09;;;;;;;7.05;4.93;;;30.30;49.00;;;;;;5054533;28;20659;-88
2022/06/12 04:38:53;;;;;;;7.45;5.05;;;30.60;37.40;;;;;;5065252;28;20227;-88
2022/06/12 04:41:31;;;;;;;6.22;4.40;;;31.00;18.70;;;;;;5061828;28;20177;-90
2022/06/12 04:43:58;;;;;;;5.43;4.90;;;31.40;17.60;;;;;;5055379;28;20185;-91
2022/06/12 04:46:34;;;;;;;5.32;4.32;;;32.00;12.30;;;;;;5067402;28;20204;-93
2022/06/12 04:49:01;;;;;;;5.80;4.60;;;32.60;1.00;;;;;;5065449;28;20165;-90
2022/06/12 04:51:29;;;;;;;6.05;4.40;;;33.20;1.00;;;;;;5063721;28;20200;-88
2022/06/12 04:53:56;;;;;;;6.15;4.53;;;33.80;1.00;;;;;;5062029;28;20663;-89
2022/06/12 04:59:16;;;;;;;5.28;4.25;;;34.80;1.00;;;;;;5062248;28;20276;-89
2022/06/12 05:01:44;;;;;;;6.07;3.97;;;35.30;1.00;;;;;;5055907;28;20218;-89
2022/06/12 05:04:11;;;;;;;4.75;4.30;;;35.80;1.00;;;;;;5059697;28;20319;-90
2022/06/12 05:06:39;;;;;;;5.57;4.07;;;36.30;1.00;;;;;;5052541;28;20204;-89
2022/06/12 05:09:07;;;;;;;6.10;4.60;;;36.50;1.00;;;;;;5047198;28;20210;-89
2022/06/12 05:11:35;;;;;;;7.25;4.25;;;36.50;1.00;;;;;;5044083;28;20276;-90
2022/06/12 05:14:03;;;;;;;4.65;3.78;;;36.60;1.00;;;;;;5032165;28;20287;-89
2022/06/12 05:16:34;;;;;;;6.80;3.63;;;36.70;1.00;;;;;;5033552;28;20288;-89
2022/06/12 05:19:01;;;;;;;5.20;3.53;;;36.80;1.00;;;;;;5032428;28;20182;-87
2022/06/12 05:21:30;;;;;;;5.53;4.00;;;37.00;1.00;;;;;;5039431;28;20703;-88
2022/06/12 05:23:57;;;;;;;4.82;3.55;;;37.00;1.00;;;;;;5043880;28;20242;-88
2022/06/12 05:26:25;;;;;;;4.82;3.67;;;36.90;1.00;;;;;;5052227;28;20299;-89
2022/06/12 05:28:55;;;;;;;5.90;3.45;;;36.70;1.00;;;;;;5047802;28;20196;-89
2022/06/12 05:31:22;;;;;;;4.93;3.10;;;36.70;1.00;;;;;;5052792;28;20673;-88
2022/06/12 05:33:49;;;;;;;5.53;3.45;;;36.60;1.00;;;;;;5052259;28;20239;-88
2022/06/12 05:36:17;;;;;;;5.28;3.50;;;36.40;1.00;;;;;;5051916;28;20216;-88
2022/06/12 05:38:45;;;;;;;5.82;3.40;;;36.40;1.00;;;;;;5052506;28;20192;-88
2022/06/12 05:41:13;;;;;;;4.10;3.17;;;36.40;1.00;;;;;;5049991;28;20275;-90
2022/06/12 05:43:41;;;;;;;5.10;3.00;;;36.50;1.00;;;;;;5056499;28;20208;-88
2022/06/12 05:46:10;;;;;;;6.53;3.20;;;36.40;1.00;;;;;;5052030;28;20339;-88
2022/06/12 05:48:38;;;;;;;4.65;3.33;;;36.30;1.00;;;;;;5052153;28;20224;-87
2022/06/12 05:51:06;;;;;;;5.10;2.78;;;36.30;1.00;;;;;;5052036;28;20200;-87
2022/06/12 05:53:36;;;;;;;4.65;2.95;;;36.20;1.00;;;;;;5061338;28;20220;-88
2022/06/12 05:56:06;;;;;;;4.70;2.90;;;36.00;1.00;;;;;;5033881;28;20185;-88
2022/06/12 05:58:34;;;;;;;4.88;2.90;;;36.00;1.00;;;;;;5034087;28;20251;-88
2022/06/12 06:01:01;;;;;;;3.60;2.72;;;36.10;1.00;;;;;;5040871;28;20335;-88
2022/06/12 06:03:30;;;;;;;3.60;2.72;;;36.00;1.00;;;;;;5035765;28;20193;-88
2022/06/12 06:05:57;;;;;;;3.97;2.63;;;36.20;1.00;;;;;;5035969;28;20292;-89
2022/06/12 06:08:24;;;;;;;4.38;2.40;;;36.40;1.00;;;;;;5035496;28;20616;-90
2022/06/12 06:10:51;;;;;;;3.70;2.38;;;36.60;1.00;;;;;;5039782;28;20647;-87
2022/06/12 06:13:18;;;;;;;6.88;2.47;;;37.10;1.00;;;;;;5055832;28;20565;-87
2022/06/12 06:15:47;;;;;;;3.45;2.40;;;37.20;1.00;;;;;;5047512;28;20280;-88
2022/06/12 06:18:14;;;;;;;4.00;2.50;;;37.20;1.00;;;;;;5035645;28;20259;-86
2022/06/12 06:20:42;;;;;;;3.90;1.83;;;37.20;1.00;;;;;;5035799;28;20564;-88
2022/06/12 06:23:10;;;;;;;4.32;1.73;;;37.10;1.00;;;;;;5053853;28;20287;-87
2022/06/12 06:25:45;;;;;;;3.88;1.80;;;37.00;1.00;;;;;;5045283;28;20209;-93
2022/06/12 06:28:32;;;;;;;4.68;1.65;;;36.90;1.00;;;;;;5050303;28;20195;-88
2022/06/12 06:30:59;;;;;;;4.95;2.13;;;36.90;1.00;;;;;;5039554;28;20228;-87
2022/06/12 06:33:26;;;;;;;5.63;1.95;;;36.10;1.00;;;;;;5033972;28;20211;-88
2022/06/12 06:35:54;;;;;;;4.43;2.15;;;35.40;1.00;;;;;;5033997;28;20221;-90
2022/06/12 06:38:21;;;;;;;5.78;2.20;;;34.90;1.00;;;;;;5035310;28;20232;-87
2022/06/12 06:40:48;;;;;;;5.15;2.25;;;34.30;1.00;;;;;;5035367;28;20621;-88
2022/06/12 06:43:15;;;;;;;4.32;2.10;;;33.90;1.00;;;;;;5035343;28;20228;-87
2022/06/12 06:48:27;;;;;;;;;;;32.80;1.00;;;;;;5035477;28;20056;-89
2022/06/12 06:50:56;;;;;;;;;;;32.80;1.00;;;;;;5035063;28;20371;-87
2022/06/12 06:53:22;;;;;;;;;;;33.20;1.00;;;;;;5035370;28;19967;-87
2022/06/12 06:55:50;;;;;;;5.60;2.55;;;33.00;1.00;;;;;;5036856;28;20210;-88
2022/06/12 06:58:20;;;;;;;4.57;2.30;;;32.50;1.00;;;;;;5034785;28;20201;-90
2022/06/12 07:00:48;;;;;;;;;;;31.90;1.00;;;;;;5048392;28;20127;-88
2022/06/12 07:03:15;;;;;;;6.97;2.92;;;31.30;1.00;;;;;;5054786;28;20242;-88
2022/06/12 07:05:45;;;;;;;5.65;2.55;;;30.80;1.00;;;;;;5054269;28;20705;-87
2022/06/12 07:08:14;;;;;;;6.53;2.83;;;30.30;1.00;;;;;;5054674;28;20561;-87
2022/06/12 07:10:41;;;;;;;4.95;2.80;;;29.90;1.00;;;;;;5054437;28;20228;-89
2022/06/12 07:13:17;;;;;;;5.22;2.67;;;29.70;1.00;;;;;;5057267;28;20228;-87
2022/06/12 07:15:45;;;;;;;4.10;2.80;;;29.50;1.00;;;;;;5054620;28;20215;-87
2022/06/12 07:18:13;;;;;;;4.57;2.80;;;29.50;1.00;;;;;;5055636;28;20284;-86
2022/06/12 07:20:47;;;;;;;5.35;2.97;;;29.40;1.00;;;;;;5054483;28;20181;-86
2022/06/12 07:23:17;;;;;;;6.32;3.28;;;29.30;1.00;;;;;;5054550;28;20172;-84
2022/06/12 07:25:45;;;;;;;;;;;29.00;1.00;;;;;;5054763;28;20454;-85
2022/06/12 07:28:12;;;;;;;;;;;28.60;1.00;;;;;;5054364;28;20011;-86
2022/06/12 07:30:39;;;;;;;5.57;3.35;;;28.10;1.00;;;;;;5044153;28;20286;-87
2022/06/12 07:33:06;;;;;;;;;;;27.70;1.00;;;;;;5034497;28;20088;-86
2022/06/12 07:35:34;;;;;;;8.75;3.60;;;27.40;1.00;;;;;;5035167;28;20234;-87
2022/06/12 07:38:02;;;;;;;4.68;3.35;;;27.10;1.00;;;;;;5036435;28;20275;-87
2022/06/12 07:40:36;;;;;;;7.45;3.38;;;26.80;1.00;;;;;;5033784;28;20682;-87
2022/06/12 07:43:03;;;;;;;;;;;26.60;1.00;;;;;;5034463;28;20475;-87
2022/06/12 07:45:30;;;;;;;;;;;26.40;1.00;;;;;;5033871;28;20015;-87
2022/06/12 07:47:57;;;;;;;;;;;26.20;1.00;;;;;;5034289;28;20012;-87
2022/06/12 07:50:24;;;;;;;7.80;3.50;;;26.10;1.00;;;;;;5035165;28;20249;-89
2022/06/12 07:52:51;;;;;;;10.30;4.63;;;25.90;1.00;;;;;;5035012;28;20280;-88
2022/06/12 07:55:19;;;;;;;9.07;4.70;;;25.80;1.00;;;;;;5033580;28;20198;-87
2022/06/12 07:57:48;;;;;;;6.10;2.97;;;25.80;1.00;;;;;;5034785;28;20629;-87
2022/06/12 08:00:16;;;;;;;;;;;25.80;1.00;;;;;;5045342;28;19927;-87
2022/06/12 08:02:43;;;;;;;;;;;26.00;1.00;;;;;;5054832;28;19921;-86
2022/06/12 08:05:10;;;;;;;;;;;26.30;1.00;;;;;;5056260;28;20042;-87
2022/06/12 08:07:36;;;;;;;;;;;26.70;1.00;;;;;;5055053;28;19947;-85
2022/06/12 08:10:13;;;;;;;;;;;27.00;1.00;;;;;;5055586;28;19920;-89
2022/06/12 08:12:41;;;;;;;;;;;27.40;1.00;;;;;;5062230;28;19971;-86
2022/06/12 08:15:14;;;;;;;;;;;27.70;1.00;;;;;;5055568;28;19965;-91
2022/06/12 08:17:41;;;;;;;5.97;2.60;;;27.80;1.00;;;;;;5054814;28;20052;-89
2022/06/12 08:20:30;;;;;;;5.57;2.70;;;28.00;1.00;;;;;;5054455;28;20232;-88
2022/06/12 08:23:02;;;;;;;4.68;3.15;;;28.10;1.00;;;;;;5054011;28;20694;-88
2022/06/12 08:25:32;;;;;;;4.40;2.45;;;28.20;1.00;;;;;;5053340;28;20291;-88
2022/06/12 08:28:00;;;;;;;11.17;2.83;;;28.30;1.00;;;;;;5052972;28;20193;-89
2022/06/12 08:30:29;;;;;;;8.23;2.50;;;28.40;1.00;;;;;;5052328;28;20197;-88
2022/06/12 08:32:57;;;;;;;8.10;2.75;;;28.40;1.00;;;;;;5035201;28;20552;-88
2022/06/12 08:35:27;;;;;;;4.72;2.63;;;28.40;1.00;;;;;;5033385;28;20198;-87
2022/06/12 08:37:54;;;;;;;6.30;2.90;;;28.30;1.00;;;;;;5033144;28;20656;-88
2022/06/12 08:40:35;;;;;;;6.97;3.10;;;28.00;1.00;;;;;;5033489;28;20236;-91
2022/06/12 08:43:09;;;;;;;6.57;3.00;;;27.60;1.00;;;;;;5033944;28;20221;-88
2022/06/12 08:45:45;;;;;;;5.57;2.92;;;27.30;1.00;;;;;;5033558;28;20289;-89
2022/06/12 08:48:19;;;;;;;5.93;3.00;;;27.00;1.00;;;;;;5033853;28;20181;-88
2022/06/12 08:50:53;;;;;;;5.25;2.90;;;26.90;1.00;;;;;;5033115;28;20196;-88
2022/06/12 08:53:25;;;;;;;10.55;3.20;;;26.70;1.00;;;;;;5033397;28;20236;-88
2022/06/12 08:55:56;;;;;;;9.38;3.80;;;26.50;1.00;;;;;;5033389;28;20182;-88
2022/06/12 08:58:30;;;;;;;7.90;3.20;;;26.40;1.00;;;;;;5034065;28;20228;-91
2022/06/12 09:01:00;;;;;;;6.90;3.17;;;26.40;1.00;;;;;;5034375;28;20190;-86
2022/06/12 09:03:32;;;;;;;6.80;2.95;;;26.50;1.00;;;;;;5037384;28;20201;-89
2022/06/12 09:06:08;;;;;;;7.50;3.25;;;26.70;1.00;;;;;;5040177;28;20220;-90
2022/06/12 09:08:45;;;;;;;5.78;3.05;;;26.70;1.00;;;;;;5040162;28;20189;-88
2022/06/12 09:11:18;;;;;;;7.03;3.38;;;26.70;1.00;;;;;;5032533;28;20212;-90
2022/06/12 09:13:54;;;;;;;8.20;3.80;;;26.80;1.00;;;;;;5032242;28;20194;-88
2022/06/12 09:16:28;;;;;;;7.55;3.25;;;26.90;1.00;;;;;;5031693;28;20220;-87
2022/06/12 09:19:02;;;;;;;6.32;3.00;;;27.10;1.00;;;;;;5032337;28;20221;-87
2022/06/12 09:21:43;;;;;;;6.68;2.97;;;27.30;1.00;;;;;;5031441;28;20235;-86
2022/06/12 09:24:23;;;;;;;5.93;3.10;;;27.40;1.00;;;;;;5031371;28;20252;-87
2022/06/12 09:27:02;;;;;;;7.00;3.10;;;27.50;1.00;;;;;;5032496;28;20679;-87
2022/06/12 09:29:45;;;;;;;4.45;3.33;;;27.50;1.00;;;;;;5037814;28;20195;-88
2022/06/12 09:32:21;;;;;;;5.78;3.47;;;27.30;1.00;;;;;;5031639;28;20216;-90
2022/06/12 09:35:00;;;;;;;5.70;3.30;;;27.30;1.00;;;;;;5043087;28;20196;-90
2022/06/12 09:40:30;;;;;;;5.82;3.20;;;27.10;1.00;;;;;;5047797;28;20208;-88
2022/06/12 09:43:01;;;;;;;5.65;3.35;;;27.10;1.00;;;;;;5044270;28;20725;-87
2022/06/12 09:45:34;;;;;;;5.30;3.05;;;26.90;1.00;;;;;;5043793;28;20199;-89
2022/06/12 09:48:14;;;;;;;6.68;3.80;;;26.70;1.00;;;;;;5040857;28;20190;-87
2022/06/12 09:50:49;;;;;;;6.30;4.03;;;26.70;1.00;;;;;;5043301;28;20231;-86
2022/06/12 09:53:42;;;;;;;6.43;3.50;;;26.60;1.00;;;;;;5045407;28;20192;-87
2022/06/12 09:56:14;;;;;;;7.50;3.63;;;26.50;1.00;;;;;;5046593;28;20310;-88
2022/06/12 09:58:47;;;;;;;10.30;6.35;;;26.30;1.00;;;;;;5047321;28;20652;-87
2022/06/12 10:01:22;;;;;;;10.43;6.05;;;26.10;1.00;;;;;;5043500;28;20264;-87
2022/06/12 10:03:52;;;;;;;;;;;25.90;1.00;;;;;;5039797;28;20221;-87
2022/06/12 10:06:23;;;;;;;;;;;25.80;1.00;;;;;;5046099;28;19921;-87
2022/06/12 10:08:52;;;;;;;;;;;25.60;1.00;;;;;;5050154;28;19921;-86
2022/06/12 10:11:22;;;;;;;;;;;25.50;1.00;;;;;;5036833;28;19921;-87
2022/06/12 10:13:51;;;;;;;;;;;25.40;1.00;;;;;;5035724;28;19960;-86
2022/06/12 10:16:19;;;;;;;;;;;25.30;1.00;;;;;;5035609;28;19960;-86
2022/06/12 10:18:49;;;;;;;;;;;25.10;1.00;;;;;;5035637;28;20008;-86
2022/06/12 10:21:21;;;;;;;;;;;25.00;1.00;;;;;;5035242;28;20443;-87
2022/06/12 10:23:48;;;;;;;;;;;24.80;1.00;;;;;;5035644;28;19928;-87
2022/06/12 10:26:17;;;;;;;;;;;24.80;1.00;;;;;;5035367;28;19928;-87
2022/06/12 10:28:44;;;;;;;;;;;24.70;1.00;;;;;;5037197;28;20015;-88
2022/06/12 10:31:18;;;;;;;;;;;24.60;1.00;;;;;;5041345;28;20402;-88
2022/06/12 10:33:48;;;;;;;;;;;24.60;1.00;;;;;;5035506;28;19928;-87
2022/06/12 10:36:24;;;;;;;9.70;4.50;;;24.50;1.00;;;;;;5034760;28;20420;-88
2022/06/12 10:38:51;;;;;;;10.23;4.20;;;24.40;1.00;;;;;;5034957;28;20197;-88
2022/06/12 10:41:23;;;;;;;10.73;4.65;;;24.40;1.00;;;;;;5034950;28;20235;-88
2022/06/12 10:43:51;;;;;;;44.95;10.68;;;24.40;1.00;;;;;;5034276;28;20252;-86
2022/06/12 10:46:21;;;;;;;8.70;4.10;;;24.40;3.60;;;;;;5034699;28;20229;-87
2022/06/12 10:49:01;;;;;;;7.95;5.00;;;24.30;57.60;;;;;;5034313;28;20208;-88
2022/06/12 10:51:36;;;;;;;7.85;4.10;;;24.40;99.90;;;;;;5034471;28;20232;-89
2022/06/12 10:54:12;;;;;;;6.15;4.10;;;24.60;99.90;;;;;;5034460;28;20556;-88
2022/06/12 10:56:46;;;;;;;7.10;3.80;;;24.80;99.90;;;;;;5047340;28;20188;-87
2022/06/12 10:59:28;;;;;;;8.57;3.97;;;25.00;99.90;;;;;;5040119;28;20193;-87
2022/06/12 11:02:04;;;;;;;6.70;3.30;;;25.20;88.80;;;;;;5045619;28;20656;-87
2022/06/12 11:04:39;;;;;;;6.10;3.35;;;25.30;49.90;;;;;;5047820;28;20275;-87
2022/06/12 11:07:19;;;;;;;7.22;3.38;;;25.40;28.50;;;;;;5051571;28;20305;-88
2022/06/12 11:10:07;;;;;;;5.57;3.53;;;25.30;15.00;;;;;;5045142;28;20610;-88
2022/06/12 11:12:50;;;;;;;6.00;3.97;;;25.30;14.60;;;;;;5034319;28;20280;-87
2022/06/12 11:15:31;;;;;;;6.53;3.60;;;25.10;12.20;;;;;;5044525;28;20186;-87
2022/06/12 11:18:14;;;;;;;5.55;3.60;;;25.00;10.50;;;;;;5035555;28;20344;-87
2022/06/12 11:20:48;;;;;;;6.10;3.60;;;24.90;12.70;;;;;;5054344;28;20557;-88
2022/06/12 11:23:42;;;;;;;8.70;4.68;;;24.80;18.50;;;;;;5055630;28;20620;-87
2022/06/12 11:26:22;;;;;;;7.47;3.70;;;24.70;31.60;;;;;;5050072;28;20197;-87
2022/06/12 11:28:56;;;;;;;8.65;5.97;;;24.60;45.40;;;;;;5045349;28;20619;-90
2022/06/12 11:31:39;;;;;;;9.73;4.10;;;24.60;56.60;;;;;;5050481;28;20281;-88
2022/06/12 11:34:18;;;;;;;7.03;4.60;;;24.50;84.40;;;;;;5033519;28;20719;-86
2022/06/12 11:36:54;;;;;;;9.88;5.22;;;24.40;99.90;;;;;;5058558;28;20177;-87
2022/06/12 11:39:42;;;;;;;5.80;3.97;;;24.30;99.90;;;;;;5056227;28;20180;-88
2022/06/12 11:45:19;;;;;;;6.82;4.07;;;24.20;99.90;;;;;;5041345;28;20196;-90
2022/06/12 11:48:04;;;;;;;5.32;3.70;;;24.30;99.90;;;;;;5036794;28;20209;-90
2022/06/12 11:50:37;;;;;;;6.78;4.00;;;24.50;99.90;;;;;;5033840;28;20263;-85
2022/06/12 11:53:15;;;;;;;4.18;3.17;;;24.80;99.90;;;;;;5033638;28;20196;-86
2022/06/12 11:55:51;;;;;;;4.75;2.72;;;25.00;99.90;;;;;;5033212;28;20232;-86
2022/06/12 11:58:41;;;;;;;5.50;2.50;;;25.10;99.90;;;;;;5033669;28;20189;-88
2022/06/12 12:01:15;;;;;;;6.88;4.57;;;25.20;99.90;;;;;;5033396;28;20280;-86
2022/06/12 12:04:08;;;;;;;8.38;2.80;;;25.40;99.90;;;;;;5033431;28;20245;-89
2022/06/12 12:06:49;;;;;;;9.60;3.10;;;25.80;99.90;;;;;;5037486;28;20212;-86
2022/06/12 12:09:26;;;;;;;3.22;2.13;;;26.10;99.90;;;;;;5041539;28;20289;-89
2022/06/12 12:12:01;;;;;;;6.10;2.30;;;26.30;99.90;;;;;;5033528;28;20193;-86
2022/06/12 12:14:31;;;;;;;5.60;2.40;;;26.40;50.50;;;;;;5033583;28;20197;-86
2022/06/12 12:17:00;;;;;;;;;;;26.50;41.80;;;;;;5033935;28;20638;-87
2022/06/12 12:19:30;;;;;;;;;;;26.70;36.30;;;;;;5033717;28;19925;-86
2022/06/12 12:21:58;;;;;;;;;;;26.90;12.00;;;;;;5034059;28;20020;-87
2022/06/12 12:24:26;;;;;;;;;;;26.80;1.00;;;;;;5034465;28;20967;-88
2022/06/12 12:26:57;;;;;;;;;;;26.90;1.00;;;;;;5041652;28;20012;-89
2022/06/12 12:29:25;;;;;;;;;;;26.90;1.00;;;;;;5037069;28;19925;-90
2022/06/12 12:31:52;;;;;;;4.15;2.47;;;27.00;1.00;;;;;;5046979;28;20051;-89
2022/06/12 12:34:23;;;;;;;5.53;2.55;;;27.20;1.00;;;;;;5035413;28;20202;-86
2022/06/12 12:42:27;;;;;;;3.60;2.50;;;27.70;1.00;;;;;;5050594;28;20192;-87
2022/06/12 12:44:56;;;;;;;4.40;2.60;;;27.80;1.00;;;;;;5047515;28;20207;-87
2022/06/12 12:47:26;;;;;;;6.72;2.63;;;27.90;1.00;;;;;;5031610;28;20515;-88
2022/06/12 12:50:07;;;;;;;3.78;2.38;;;28.10;1.00;;;;;;5034147;28;20212;-87
2022/06/12 12:52:42;;;;;;;4.38;2.65;;;28.30;1.00;;;;;;5039540;28;20617;-86
2022/06/12 12:55:21;;;;;;;6.32;2.60;;;28.30;1.00;;;;;;5048544;28;20647;-92
2022/06/12 12:57:51;;;;;;;3.13;2.67;;;28.10;1.00;;;;;;5034233;28;20190;-88
2022/06/12 13:00:33;;;;;;;4.45;2.45;;;28.10;1.00;;;;;;5036213;28;20197;-87
2022/06/12 13:03:11;;;;;;;4.15;2.80;;;28.10;1.00;;;;;;5040912;28;20193;-87
2022/06/12 13:06:18;;;;;;;4.50;2.53;;;28.20;1.00;;;;;;5034330;28;20311;-87
2022/06/12 13:09:08;;;;;;;6.55;2.50;;;28.30;1.00;;;;;;5034058;28;20220;-87
2022/06/12 13:11:49;;;;;;;3.45;2.58;;;28.40;1.00;;;;;;5044257;28;20192;-91
2022/06/12 13:14:33;;;;;;;3.65;2.38;;;28.40;1.00;;;;;;5037568;28;20617;-89
2022/06/12 13:17:31;;;;;;;5.25;2.40;;;28.40;1.00;;;;;;5031289;28;20225;-91
2022/06/12 13:20:27;;;;;;;3.88;2.30;;;28.30;1.00;;;;;;5031577;28;20194;-87
2022/06/12 13:23:10;;;;;;;3.17;2.65;;;28.10;1.00;;;;;;5015021;28;20233;-87
2022/06/12 13:25:48;;;;;;;5.88;3.00;;;28.20;1.00;;;;;;5041767;28;20185;-89
2022/06/12 13:28:22;;;;;;;4.40;3.45;;;28.20;1.00;;;;;;5042099;28;20212;-85
2022/06/12 13:30:50;;;;;;;6.00;3.97;;;28.30;1.00;;;;;;5033017;28;20280;-88
2022/06/12 13:33:20;;;;;;;4.35;2.90;;;28.40;1.00;;;;;;5046084;28;20232;-85
2022/06/12 13:35:50;;;;;;;3.60;2.78;;;28.50;1.00;;;;;;5037680;28;20203;-87
2022/06/12 13:38:23;;;;;;;5.93;4.20;;;28.50;1.00;;;;;;5044873;28;20656;-86
2022/06/12 13:41:20;;;;;;;5.55;3.05;;;28.60;1.00;;;;;;5042845;28;20308;-85
2022/06/12 13:43:47;;;;;;;3.88;2.85;;;28.60;1.00;;;;;;5048006;28;20276;-86
2022/06/12 13:46:24;;;;;;;12.07;8.70;;;28.40;1.00;;;;;;5049210;28;20280;-86
2022/06/12 13:48:52;;;;;;;4.75;3.00;;;28.30;1.00;;;;;;5048110;28;20214;-85
2022/06/12 13:51:29;;;;;;;5.70;3.63;;;28.30;1.00;;;;;;5049209;28;20201;-86
2022/06/12 13:54:01;;;;;;;3.45;2.80;;;28.30;1.00;;;;;;5049324;28;20203;-85
2022/06/12 13:56:30;;;;;;;4.18;3.10;;;28.40;1.00;;;;;;5049552;28;20197;-85
2022/06/12 13:58:58;;;;;;;5.90;2.92;;;28.50;1.00;;;;;;5047471;28;20185;-85
2022/06/12 14:01:28;;;;;;;5.13;3.05;;;28.40;1.00;;;;;;5048802;28;20235;-86
2022/06/12 14:03:58;;;;;;;4.38;2.78;;;28.30;1.00;;;;;;5046438;28;20248;-86
2022/06/12 14:06:28;;;;;;;6.32;3.03;;;28.30;1.00;;;;;;5051686;28;20289;-86
2022/06/12 14:09:00;;;;;;;3.35;3.03;;;28.20;1.00;;;;;;5035249;28;20218;-85
2022/06/12 14:11:28;;;;;;;4.38;3.10;;;28.00;1.00;;;;;;5031736;28;20703;-86
2022/06/12 14:13:56;;;;;;;4.63;3.47;;;27.90;1.00;;;;;;5031820;28;20194;-84
2022/06/12 14:16:27;;;;;;;3.70;3.25;;;27.80;1.00;;;;;;5031446;28;20196;-88